Time;durP1;ratioP1;P1;durP2;ratioP2;P2;SDS_P1;SDS_P2;PMS_P1;PMS_P2;Temp;Humidity;BMP_temperature;BMP_pressure;BME280_temperature;BME280_humidity;BME280_pressure;Samples;Min_cycle;Max_cycle;Signal;HPM_P1;HPM_P2
2023/10/22 00:14:19;;;;;;;19.83;17.85;;;17.90;99.90;;;;;;4550001;19;20045;31
2023/10/22 00:15:56;;;;;;;17.83;15.93;;;17.90;99.90;;;;;;4591878;19;20047;-71
2023/10/22 00:17:30;;;;;;;17.73;16.02;;;17.90;99.90;;;;;;4592900;19;20006;-71
2023/10/22 00:19:04;;;;;;;19.15;17.25;;;17.90;99.90;;;;;;4593092;19;20448;-71
2023/10/22 00:20:39;;;;;;;16.83;15.13;;;17.90;99.90;;;;;;4593029;19;20023;-71
2023/10/22 00:22:14;;;;;;;19.35;17.40;;;18.00;99.90;;;;;;4593283;19;20006;-71
2023/10/22 00:23:48;;;;;;;19.30;17.40;;;18.00;99.90;;;;;;4593240;19;20021;-71
2023/10/22 00:25:23;;;;;;;18.77;16.77;;;17.90;99.90;;;;;;4592557;19;20006;-71
2023/10/22 00:26:58;;;;;;;18.25;16.55;;;18.00;99.90;;;;;;4592939;19;20148;-71
2023/10/22 00:28:33;;;;;;;17.10;15.40;;;17.90;99.90;;;;;;4590609;19;20003;-71
2023/10/22 00:30:09;;;;;;;17.50;15.65;;;17.90;99.90;;;;;;4593329;19;20009;-71
2023/10/22 00:31:44;;;;;;;18.17;16.17;;;17.90;99.90;;;;;;4592628;19;20002;-71
2023/10/22 00:33:18;;;;;;;17.90;16.10;;;17.90;99.90;;;;;;4592756;19;20003;-71
2023/10/22 00:34:53;;;;;;;17.38;15.68;;;18.00;99.90;;;;;;4592233;19;20018;-71
2023/10/22 00:36:27;;;;;;;17.20;15.50;;;17.90;99.90;;;;;;4592690;19;20006;-71
2023/10/22 00:38:00;;;;;;;17.63;15.82;;;18.00;99.90;;;;;;4592655;19;20366;-71
2023/10/22 00:39:36;;;;;;;17.88;16.13;;;18.00;99.90;;;;;;4593104;19;20327;-71
2023/10/22 00:41:11;;;;;;;18.17;16.38;;;18.00;99.90;;;;;;4592577;19;19998;-71
2023/10/22 00:42:46;;;;;;;17.88;16.13;;;18.10;99.90;;;;;;4592518;19;20003;-71
2023/10/22 00:44:22;;;;;;;17.30;15.60;;;18.10;99.90;;;;;;4592719;19;20007;-71
2023/10/22 00:45:56;;;;;;;17.35;15.65;;;18.20;99.90;;;;;;4592522;19;20002;-71
2023/10/22 00:47:30;;;;;;;17.67;15.93;;;18.40;99.90;;;;;;4592482;19;20002;-71
2023/10/22 00:49:05;;;;;;;17.88;16.10;;;18.40;99.90;;;;;;4592460;19;20369;-71
2023/10/22 00:50:41;;;;;;;16.23;14.63;;;18.50;99.90;;;;;;4592454;19;20027;-71
2023/10/22 00:52:19;;;;;;;17.05;15.45;;;18.60;99.90;;;;;;4592198;19;20422;-71
2023/10/22 00:53:54;;;;;;;18.08;16.27;;;18.70;99.90;;;;;;4591021;19;20058;-71
2023/10/22 00:55:28;;;;;;;18.15;16.35;;;18.70;99.90;;;;;;4591338;19;20002;-71
2023/10/22 00:57:02;;;;;;;18.05;16.15;;;18.80;99.90;;;;;;4591003;19;20018;-71
2023/10/22 00:58:38;;;;;;;17.00;15.25;;;18.90;99.90;;;;;;4592300;19;20007;-71
2023/10/22 01:00:13;;;;;;;17.70;15.93;;;18.90;99.90;;;;;;4592556;19;20002;-71
2023/10/22 01:01:47;;;;;;;16.20;14.70;;;19.00;99.90;;;;;;4592565;19;20307;-71
2023/10/22 01:03:23;;;;;;;15.98;14.27;;;19.10;99.90;;;;;;4592561;19;20030;-71
2023/10/22 01:04:57;;;;;;;16.52;14.82;;;19.10;99.90;;;;;;4592168;19;20005;-71
2023/10/22 01:06:32;;;;;;;17.20;15.50;;;19.20;99.90;;;;;;4592153;19;19995;-71
2023/10/22 01:08:07;;;;;;;16.88;15.13;;;19.20;99.90;;;;;;4592263;19;20021;-71
2023/10/22 01:09:41;;;;;;;17.38;15.68;;;19.30;99.90;;;;;;4590897;19;20010;-71
2023/10/22 01:11:15;;;;;;;16.75;15.15;;;19.30;99.90;;;;;;4591732;19;20070;-71
2023/10/22 01:12:50;;;;;;;18.33;16.52;;;19.40;99.90;;;;;;4591263;19;20011;-71
2023/10/22 01:14:24;;;;;;;17.77;15.98;;;19.40;99.90;;;;;;4591795;19;20003;-71
2023/10/22 01:15:58;;;;;;;16.17;14.57;;;19.40;99.90;;;;;;4590545;19;20015;-71
2023/10/22 01:17:34;;;;;;;17.17;15.45;;;19.50;99.90;;;;;;4591757;19;20007;-71
2023/10/22 01:19:09;;;;;;;16.85;15.20;;;19.50;99.90;;;;;;4591723;19;20039;-71
2023/10/22 01:20:44;;;;;;;17.52;15.73;;;19.50;99.90;;;;;;4591357;19;20005;-71
2023/10/22 01:22:19;;;;;;;17.08;15.40;;;19.50;99.90;;;;;;4592074;19;20006;-71
2023/10/22 01:23:53;;;;;;;17.25;15.55;;;19.50;99.90;;;;;;4592145;19;20426;-71
2023/10/22 01:25:27;;;;;;;16.67;14.98;;;19.50;99.90;;;;;;4590976;19;20081;-71
2023/10/22 01:27:03;;;;;;;17.27;15.48;;;19.60;99.90;;;;;;4591870;19;20426;-71
2023/10/22 01:28:37;;;;;;;16.75;15.05;;;19.60;99.90;;;;;;4591767;19;20002;-70
2023/10/22 01:30:12;;;;;;;18.55;16.48;;;19.60;99.90;;;;;;4590957;19;19999;-71
2023/10/22 01:31:50;;;;;;;17.85;16.15;;;19.60;99.90;;;;;;4591344;19;20024;-71
2023/10/22 01:33:24;;;;;;;17.17;15.48;;;19.60;99.90;;;;;;4591958;19;20410;-71
2023/10/22 01:34:59;;;;;;;17.25;15.55;;;19.60;99.90;;;;;;4589651;19;20077;-71
2023/10/22 01:36:35;;;;;;;17.00;15.35;;;19.60;99.90;;;;;;4590637;19;20034;-71
2023/10/22 01:38:11;;;;;;;22.05;15.98;;;19.50;99.90;;;;;;4591316;19;20493;-71
2023/10/22 01:39:47;;;;;;;17.38;15.57;;;19.50;99.90;;;;;;4593398;19;20437;-71
2023/10/22 01:41:23;;;;;;;18.00;16.20;;;19.50;99.90;;;;;;4595094;19;20002;-71
2023/10/22 01:42:57;;;;;;;17.75;15.90;;;19.50;99.90;;;;;;4595969;19;20426;-71
2023/10/22 01:44:31;;;;;;;17.08;15.32;;;19.50;99.90;;;;;;4594533;19;20454;-71
2023/10/22 01:46:06;;;;;;;18.10;16.30;;;19.40;99.90;;;;;;4595877;19;19998;-71
2023/10/22 01:47:40;;;;;;;18.00;16.05;;;19.40;99.90;;;;;;4594894;19;20023;-71
2023/10/22 01:49:14;;;;;;;17.70;15.90;;;19.40;99.90;;;;;;4596081;19;20300;-71
2023/10/22 01:50:49;;;;;;;18.80;16.40;;;19.30;99.90;;;;;;4596369;19;20383;-71
2023/10/22 01:52:23;;;;;;;17.90;16.00;;;19.30;99.90;;;;;;4595106;19;20449;-71
2023/10/22 01:53:57;;;;;;;18.05;16.20;;;19.30;99.90;;;;;;4594756;19;20006;-71
2023/10/22 01:55:34;;;;;;;19.77;17.88;;;19.30;99.90;;;;;;4594119;19;20010;-71
2023/10/22 01:57:08;;;;;;;19.60;17.58;;;19.20;99.90;;;;;;4595906;19;20448;-71
2023/10/22 01:58:44;;;;;;;19.33;17.15;;;19.20;99.90;;;;;;4595922;19;20019;-71
2023/10/22 02:00:19;;;;;;;19.10;17.05;;;19.20;99.90;;;;;;4596007;19;20029;-71
2023/10/22 02:01:54;;;;;;;19.27;17.27;;;19.20;99.90;;;;;;4595908;19;20349;-71
2023/10/22 02:03:28;;;;;;;19.33;17.30;;;19.10;99.90;;;;;;4595860;19;19998;-71
2023/10/22 02:05:04;;;;;;;19.77;17.67;;;19.10;99.90;;;;;;4594843;19;20031;-71
2023/10/22 02:06:39;;;;;;;19.52;17.45;;;19.10;99.90;;;;;;4595831;19;20317;-71
2023/10/22 02:08:14;;;;;;;18.67;16.85;;;19.00;99.90;;;;;;4595806;19;20023;-71
2023/10/22 02:09:50;;;;;;;20.27;17.92;;;19.00;99.90;;;;;;4595888;19;20007;-71
2023/10/22 02:11:24;;;;;;;19.52;16.95;;;19.00;99.90;;;;;;4596007;19;20003;-71
2023/10/22 02:12:58;;;;;;;18.85;16.85;;;18.90;99.90;;;;;;4594326;19;19994;-71
2023/10/22 02:14:33;;;;;;;20.60;16.70;;;18.90;99.90;;;;;;4595220;19;19998;-71
2023/10/22 02:16:07;;;;;;;19.45;16.85;;;18.90;99.90;;;;;;4593984;19;20316;-71
2023/10/22 02:17:41;;;;;;;19.33;17.33;;;18.90;99.90;;;;;;4594299;19;20009;-71
2023/10/22 02:19:16;;;;;;;21.35;16.73;;;18.90;99.90;;;;;;4595291;19;20041;-71
2023/10/22 02:20:59;;;;;;;19.48;17.20;;;18.80;99.90;;;;;;4595514;19;20007;-71
2023/10/22 02:22:33;;;;;;;20.75;17.70;;;18.80;99.90;;;;;;4594470;19;20033;-71
2023/10/22 02:24:08;;;;;;;20.25;18.15;;;18.80;99.90;;;;;;4595209;19;20013;-71
2023/10/22 02:25:42;;;;;;;19.85;17.75;;;18.80;99.90;;;;;;4593771;19;20027;-71
2023/10/22 02:27:16;;;;;;;18.95;16.90;;;18.80;99.90;;;;;;4595362;19;20023;-71
2023/10/22 02:28:51;;;;;;;19.80;17.27;;;18.80;99.90;;;;;;4595871;19;20010;-71
2023/10/22 02:30:28;;;;;;;20.70;17.55;;;18.70;99.90;;;;;;4593988;19;20010;-71
2023/10/22 02:32:02;;;;;;;18.45;16.45;;;18.70;99.90;;;;;;4594638;19;20453;-71
2023/10/22 02:33:38;;;;;;;19.90;16.90;;;18.70;99.90;;;;;;4595338;19;20010;-71
2023/10/22 02:35:12;;;;;;;18.58;16.23;;;18.70;99.90;;;;;;4594221;19;20003;-71
2023/10/22 02:36:46;;;;;;;17.67;15.52;;;18.70;99.90;;;;;;4595224;19;20287;-71
2023/10/22 02:38:21;;;;;;;21.15;17.50;;;18.70;99.90;;;;;;4595685;19;20007;-71
2023/10/22 02:39:55;;;;;;;20.80;17.10;;;18.70;99.90;;;;;;4595393;19;20032;-71
2023/10/22 02:41:30;;;;;;;19.15;17.13;;;18.60;99.90;;;;;;4595631;19;20029;-71
2023/10/22 02:43:06;;;;;;;19.55;17.00;;;18.60;99.90;;;;;;4595078;19;20009;-71
2023/10/22 02:44:41;;;;;;;19.50;16.83;;;18.60;99.90;;;;;;4593502;19;20019;-71
2023/10/22 02:46:16;;;;;;;20.25;17.60;;;18.60;99.90;;;;;;4594705;19;20014;-71
2023/10/22 02:47:51;;;;;;;21.80;17.65;;;18.60;99.90;;;;;;4595356;19;20007;-71
2023/10/22 02:49:25;;;;;;;19.85;17.17;;;18.70;99.90;;;;;;4595219;19;20003;-71
2023/10/22 02:51:03;;;;;;;20.70;17.95;;;18.70;99.90;;;;;;4592505;19;20070;-71
2023/10/22 02:52:39;;;;;;;22.45;18.45;;;18.70;99.90;;;;;;4592544;19;20037;-71
2023/10/22 02:54:14;;;;;;;22.45;18.27;;;18.70;99.90;;;;;;4594602;19;20002;-71
2023/10/22 02:55:49;;;;;;;23.95;19.52;;;18.70;99.90;;;;;;4593785;19;20343;-71
2023/10/22 02:57:24;;;;;;;25.65;19.08;;;18.70;99.90;;;;;;4593412;19;20053;-71
2023/10/22 02:58:58;;;;;;;22.90;18.05;;;18.70;99.90;;;;;;4594359;19;20398;-71
2023/10/22 03:00:36;;;;;;;21.60;18.15;;;18.70;99.90;;;;;;4594742;19;20329;-71
2023/10/22 03:02:12;;;;;;;21.15;17.95;;;18.70;99.90;;;;;;4594783;19;20014;-71
2023/10/22 03:03:46;;;;;;;21.63;17.90;;;18.70;99.90;;;;;;4594715;19;20009;-71
2023/10/22 03:05:21;;;;;;;22.20;17.85;;;18.70;99.90;;;;;;4593518;19;20019;-71
2023/10/22 03:06:57;;;;;;;19.50;17.10;;;18.70;99.90;;;;;;4594681;19;20021;-71
2023/10/22 03:08:33;;;;;;;19.65;16.42;;;18.60;99.90;;;;;;4593518;19;20023;-71
2023/10/22 03:10:09;;;;;;;19.75;17.20;;;18.70;99.90;;;;;;4594230;19;20454;-71
2023/10/22 03:11:46;;;;;;;19.02;16.38;;;18.60;99.90;;;;;;4594604;19;20463;-71
2023/10/22 03:13:22;;;;;;;20.20;17.05;;;18.70;99.90;;;;;;4594781;19;19998;-71
2023/10/22 03:14:56;;;;;;;21.02;16.73;;;18.60;99.90;;;;;;4593396;19;20062;-71
2023/10/22 03:16:32;;;;;;;17.77;15.80;;;18.60;99.90;;;;;;4594503;19;20302;-71
2023/10/22 03:18:07;;;;;;;17.58;15.77;;;18.60;99.90;;;;;;4594744;19;20006;-71
2023/10/22 03:19:42;;;;;;;18.80;15.77;;;18.60;99.90;;;;;;4594594;19;19998;-71
2023/10/22 03:21:28;;;;;;;18.40;16.15;;;18.60;99.90;;;;;;4594455;19;20006;-71
2023/10/22 03:23:05;;;;;;;17.77;15.88;;;18.60;99.90;;;;;;4593325;19;20006;-71
2023/10/22 03:24:39;;;;;;;17.80;15.45;;;18.50;99.90;;;;;;4593507;19;20010;-71
2023/10/22 03:26:16;;;;;;;17.92;15.57;;;18.60;99.90;;;;;;4594411;19;20002;-71
2023/10/22 03:27:50;;;;;;;18.77;16.38;;;18.50;99.90;;;;;;4594175;19;20035;-71
2023/10/22 03:29:25;;;;;;;18.75;16.67;;;18.50;99.90;;;;;;4594153;19;20006;-71
2023/10/22 03:31:07;;;;;;;18.33;16.35;;;18.50;99.90;;;;;;4594480;19;20006;-71
2023/10/22 03:32:42;;;;;;;18.23;15.73;;;18.50;99.90;;;;;;4593395;19;20014;-71
2023/10/22 03:34:17;;;;;;;17.48;14.75;;;18.50;99.90;;;;;;4593904;19;20357;-71
2023/10/22 03:35:52;;;;;;;17.63;15.82;;;18.50;99.90;;;;;;4594346;19;20422;-71
2023/10/22 03:37:26;;;;;;;16.45;14.55;;;18.50;99.90;;;;;;4593991;19;20464;-71
2023/10/22 03:39:03;;;;;;;18.60;15.75;;;18.40;99.90;;;;;;4593979;19;20000;-71
2023/10/22 03:40:40;;;;;;;18.15;14.63;;;18.40;99.90;;;;;;4594276;19;20380;-71
2023/10/22 03:42:15;;;;;;;16.65;14.90;;;18.40;99.90;;;;;;4593949;19;20007;-71
2023/10/22 03:43:50;;;;;;;17.48;14.30;;;18.40;99.90;;;;;;4594091;19;20023;-71
2023/10/22 03:45:26;;;;;;;17.13;15.30;;;18.40;99.90;;;;;;4592831;19;20424;-71
2023/10/22 03:47:00;;;;;;;17.52;15.52;;;18.40;99.90;;;;;;4594030;19;19999;-71
2023/10/22 03:48:33;;;;;;;16.95;14.50;;;18.40;99.90;;;;;;4593757;19;20429;-71
2023/10/22 03:50:09;;;;;;;16.77;15.00;;;18.40;99.90;;;;;;4593822;19;20007;-71
2023/10/22 03:51:43;;;;;;;16.27;14.45;;;18.40;99.90;;;;;;4593972;19;20003;-71
2023/10/22 03:53:17;;;;;;;17.92;14.70;;;18.30;99.90;;;;;;4592439;19;19999;-71
2023/10/22 03:54:54;;;;;;;15.63;14.07;;;18.30;99.90;;;;;;4593111;19;20015;-71
2023/10/22 03:56:27;;;;;;;14.07;12.57;;;18.30;99.90;;;;;;4593635;19;20025;-71
2023/10/22 03:58:01;;;;;;;15.77;14.13;;;18.30;99.90;;;;;;4593605;19;19998;-71
2023/10/22 03:59:37;;;;;;;15.30;13.43;;;18.30;99.90;;;;;;4594056;19;20023;-71
2023/10/22 04:01:11;;;;;;;15.95;14.25;;;18.30;99.90;;;;;;4592277;19;20003;-71
2023/10/22 04:02:46;;;;;;;16.27;14.40;;;18.30;99.90;;;;;;4591860;19;20034;-71
2023/10/22 04:04:22;;;;;;;16.10;14.40;;;18.30;99.90;;;;;;4593053;19;20039;-71
2023/10/22 04:06:00;;;;;;;17.08;14.10;;;18.20;99.90;;;;;;4593431;19;20307;-71
2023/10/22 04:07:35;;;;;;;15.48;13.75;;;18.30;99.90;;;;;;4593477;19;20449;-71
2023/10/22 04:09:10;;;;;;;17.48;15.10;;;18.20;99.90;;;;;;4593462;19;20033;-71
2023/10/22 04:10:47;;;;;;;17.10;15.30;;;18.30;99.90;;;;;;4593197;19;20082;-71
2023/10/22 04:12:22;;;;;;;14.98;13.38;;;18.20;99.90;;;;;;4592827;19;20493;-71
2023/10/22 04:13:57;;;;;;;15.85;14.25;;;18.20;99.90;;;;;;4593353;19;20305;-71
2023/10/22 04:15:41;;;;;;;16.52;14.57;;;18.20;99.90;;;;;;4591863;19;20348;-71
2023/10/22 04:17:15;;;;;;;16.27;14.55;;;18.20;99.90;;;;;;4593310;19;20087;-71
2023/10/22 04:18:50;;;;;;;15.45;13.85;;;18.20;99.90;;;;;;4593189;19;20013;-71
2023/10/22 04:20:25;;;;;;;15.57;13.63;;;18.20;99.90;;;;;;4593146;19;19998;-71
2023/10/22 04:21:59;;;;;;;16.02;14.32;;;18.20;99.90;;;;;;4593104;19;20384;-71
2023/10/22 04:23:35;;;;;;;15.48;13.88;;;18.20;99.90;;;;;;4593372;19;20010;-71
2023/10/22 04:25:11;;;;;;;14.35;12.60;;;18.20;99.90;;;;;;4592252;19;20006;-71
2023/10/22 04:26:45;;;;;;;14.82;13.23;;;18.10;99.90;;;;;;4591659;19;20010;-71
2023/10/22 04:28:21;;;;;;;17.55;14.70;;;18.20;99.90;;;;;;4592664;19;20010;-71
2023/10/22 04:29:55;;;;;;;16.85;15.07;;;18.20;99.90;;;;;;4592918;19;19998;-71
2023/10/22 04:31:31;;;;;;;16.45;14.75;;;18.20;99.90;;;;;;4592895;19;20003;-71
2023/10/22 04:33:06;;;;;;;15.57;13.98;;;18.20;99.90;;;;;;4592278;19;20006;-71
2023/10/22 04:34:41;;;;;;;16.55;14.63;;;18.10;99.90;;;;;;4591379;19;20315;-71
2023/10/22 04:36:20;;;;;;;15.73;14.13;;;18.10;99.90;;;;;;4592400;19;20433;-71
2023/10/22 04:37:56;;;;;;;19.58;14.40;;;18.10;99.90;;;;;;4593068;19;20007;-71
2023/10/22 04:39:31;;;;;;;15.23;13.07;;;18.10;99.90;;;;;;4592789;19;20074;-71
2023/10/22 04:41:10;;;;;;;17.88;15.38;;;18.10;99.90;;;;;;4591629;19;20005;-71
2023/10/22 04:42:46;;;;;;;16.70;14.23;;;18.10;99.90;;;;;;4591534;19;20310;-71
2023/10/22 04:44:21;;;;;;;17.63;15.32;;;18.10;99.90;;;;;;4592113;19;20287;-71
2023/10/22 04:45:59;;;;;;;15.85;14.07;;;18.10;99.90;;;;;;4593031;19;20298;-71
2023/10/22 04:47:36;;;;;;;16.48;14.27;;;18.10;99.90;;;;;;4591336;19;20006;-71
2023/10/22 04:49:11;;;;;;;14.50;13.00;;;18.10;99.90;;;;;;4592191;19;20440;-71
2023/10/22 04:50:45;;;;;;;16.17;13.43;;;18.10;99.90;;;;;;4592780;19;20422;-71
2023/10/22 04:52:34;;;;;;;14.63;13.13;;;18.10;99.90;;;;;;4592206;19;20023;-71
2023/10/22 04:54:09;;;;;;;15.23;13.63;;;18.10;99.90;;;;;;4591153;19;20318;-71
2023/10/22 04:55:43;;;;;;;16.33;14.20;;;18.10;99.90;;;;;;4591125;19;20303;-71
2023/10/22 04:57:19;;;;;;;16.80;14.80;;;18.10;99.90;;;;;;4593027;19;20002;-71
2023/10/22 04:58:53;;;;;;;16.45;14.18;;;18.00;99.90;;;;;;4592582;19;20287;-71
2023/10/22 05:00:27;;;;;;;14.82;13.20;;;18.00;99.90;;;;;;4592338;19;20002;-71
2023/10/22 05:02:03;;;;;;;15.60;13.65;;;18.00;99.90;;;;;;4592365;19;20315;-71
2023/10/22 05:03:38;;;;;;;17.05;14.20;;;18.00;99.90;;;;;;4592289;19;20025;-71
2023/10/22 05:05:13;;;;;;;16.50;14.80;;;18.00;99.90;;;;;;4591758;19;20010;-71
2023/10/22 05:06:48;;;;;;;17.83;14.38;;;18.00;99.90;;;;;;4591188;19;20013;-70
2023/10/22 05:08:27;;;;;;;15.48;13.27;;;18.00;99.90;;;;;;4591813;19;20002;-70
2023/10/22 05:10:01;;;;;;;16.38;14.77;;;18.00;99.90;;;;;;4592507;19;20006;-71
2023/10/22 05:11:38;;;;;;;17.05;15.25;;;18.00;99.90;;;;;;4592241;19;20010;-71
2023/10/22 05:13:12;;;;;;;17.92;16.02;;;18.00;99.90;;;;;;4591081;19;20036;-70
2023/10/22 05:14:46;;;;;;;16.52;14.73;;;18.00;99.90;;;;;;4589652;19;20029;-71
2023/10/22 05:16:24;;;;;;;15.70;14.10;;;18.10;99.90;;;;;;4590729;19;20014;-71
2023/10/22 05:17:59;;;;;;;16.58;14.75;;;18.10;99.90;;;;;;4592057;19;20007;-70
2023/10/22 05:19:33;;;;;;;15.85;14.18;;;18.10;99.90;;;;;;4592242;19;20019;-71
2023/10/22 05:21:09;;;;;;;16.20;14.30;;;18.10;99.90;;;;;;4592336;19;20006;-71
2023/10/22 05:22:44;;;;;;;17.45;15.60;;;18.20;99.90;;;;;;4591970;19;20003;-71
2023/10/22 05:24:19;;;;;;;16.10;14.40;;;18.20;99.90;;;;;;4592083;19;20010;-71
2023/10/22 05:26:13;;;;;;;15.45;13.85;;;18.20;99.90;;;;;;4592217;19;20003;-71
2023/10/22 05:27:48;;;;;;;15.65;13.88;;;18.20;99.90;;;;;;4591913;19;20018;-71
2023/10/22 05:29:22;;;;;;;16.73;13.60;;;18.20;99.90;;;;;;4591828;19;20002;-70
2023/10/22 05:30:58;;;;;;;16.77;14.98;;;18.20;99.90;;;;;;4591906;19;20003;-70
2023/10/22 05:32:32;;;;;;;15.38;13.30;;;18.20;99.90;;;;;;4591223;19;19999;-70
2023/10/22 05:34:08;;;;;;;16.10;14.40;;;18.20;99.90;;;;;;4591764;19;20031;-71
2023/10/22 05:35:45;;;;;;;15.38;13.80;;;18.20;99.90;;;;;;4590428;19;20030;-71
2023/10/22 05:37:19;;;;;;;17.45;14.38;;;18.20;99.90;;;;;;4591901;19;20010;-71
2023/10/22 05:38:53;;;;;;;15.52;13.68;;;18.20;99.90;;;;;;4591911;19;20426;-71
2023/10/22 05:40:29;;;;;;;14.55;13.05;;;18.20;99.90;;;;;;4591744;19;20006;-71
2023/10/22 05:42:06;;;;;;;16.05;14.35;;;18.20;99.90;;;;;;4590152;19;20014;-71
2023/10/22 05:43:39;;;;;;;15.15;13.52;;;18.20;99.90;;;;;;4591354;19;20070;-71
2023/10/22 05:45:15;;;;;;;15.90;13.38;;;18.20;99.90;;;;;;4589387;19;20364;-71
2023/10/22 05:46:49;;;;;;;14.77;13.18;;;18.20;99.90;;;;;;4591228;19;20002;-71
2023/10/22 05:48:22;;;;;;;15.20;13.55;;;18.20;99.90;;;;;;4591506;19;20120;-71
2023/10/22 05:50:03;;;;;;;14.63;13.02;;;18.20;99.90;;;;;;4591547;19;20315;-71
2023/10/22 05:51:41;;;;;;;15.27;13.68;;;18.10;99.90;;;;;;4590213;19;20006;-71
2023/10/22 05:53:14;;;;;;;14.55;12.85;;;18.20;99.90;;;;;;4590094;19;20032;-71
2023/10/22 05:54:55;;;;;;;14.45;12.95;;;18.10;99.90;;;;;;4591157;19;20371;-70
2023/10/22 05:56:32;;;;;;;14.38;12.88;;;18.10;99.90;;;;;;4590384;19;20010;-70
2023/10/22 05:58:08;;;;;;;16.00;13.40;;;18.10;99.90;;;;;;4591407;19;20007;-71
2023/10/22 05:59:43;;;;;;;14.55;13.10;;;18.10;99.90;;;;;;4592147;19;20007;-72
2023/10/22 06:01:17;;;;;;;14.93;13.32;;;18.10;99.90;;;;;;4591309;19;20298;-71
2023/10/22 06:02:52;;;;;;;15.43;13.82;;;18.10;99.90;;;;;;4591387;19;19991;-72
2023/10/22 06:04:27;;;;;;;14.68;13.18;;;18.10;99.90;;;;;;4591070;19;20003;-72
2023/10/22 06:06:01;;;;;;;14.52;12.95;;;18.10;99.90;;;;;;4589916;19;20003;-71
2023/10/22 06:07:36;;;;;;;15.25;13.63;;;18.10;99.90;;;;;;4590709;19;20015;-72
2023/10/22 06:09:12;;;;;;;13.80;12.32;;;18.10;99.90;;;;;;4591250;19;20013;-71
2023/10/22 06:10:47;;;;;;;15.05;13.55;;;18.10;99.90;;;;;;4591131;19;20302;-71
2023/10/22 06:12:20;;;;;;;13.98;12.57;;;18.10;99.90;;;;;;4590692;19;20392;-72
2023/10/22 06:13:56;;;;;;;14.63;13.07;;;18.10;99.90;;;;;;4591620;19;20026;-72
2023/10/22 06:15:30;;;;;;;13.75;12.35;;;18.10;99.90;;;;;;4589617;19;20022;-72
2023/10/22 06:17:04;;;;;;;15.65;13.30;;;18.10;99.90;;;;;;4591009;19;20020;-72
2023/10/22 06:18:39;;;;;;;16.95;14.13;;;18.10;99.90;;;;;;4591060;19;19999;-72
2023/10/22 06:20:14;;;;;;;15.23;13.70;;;18.10;99.90;;;;;;4590894;19;20003;-72
2023/10/22 06:21:48;;;;;;;15.77;13.48;;;18.10;99.90;;;;;;4590923;19;20003;-70
2023/10/22 06:23:24;;;;;;;15.32;12.77;;;18.10;99.90;;;;;;4591021;19;20006;-71
2023/10/22 06:24:58;;;;;;;15.70;14.00;;;18.10;99.90;;;;;;4588846;19;20014;-71
2023/10/22 06:26:33;;;;;;;15.45;12.82;;;18.00;99.90;;;;;;4591486;19;20003;-71
2023/10/22 06:28:08;;;;;;;16.58;13.07;;;18.00;99.90;;;;;;4595477;19;20021;-72
2023/10/22 06:29:42;;;;;;;17.05;14.15;;;18.00;99.90;;;;;;4595311;19;20035;-71
2023/10/22 06:31:16;;;;;;;15.90;14.20;;;18.00;99.90;;;;;;4593891;19;20033;-72
2023/10/22 06:32:56;;;;;;;15.57;12.85;;;18.00;99.90;;;;;;4593992;19;20014;-72
2023/10/22 06:34:31;;;;;;;18.33;14.55;;;18.00;99.90;;;;;;4594931;19;20007;-72
2023/10/22 06:36:31;;;;;;;18.27;14.98;;;18.10;99.90;;;;;;4595445;19;20058;-71
2023/10/22 06:38:07;;;;;;;16.67;14.30;;;18.10;99.90;;;;;;4592789;19;20010;-71
2023/10/22 06:39:42;;;;;;;18.10;14.20;;;18.00;99.90;;;;;;4592694;19;20478;-71
2023/10/22 06:41:24;;;;;;;20.58;15.10;;;18.10;99.90;;;;;;4592717;19;20030;-70
2023/10/22 06:42:59;;;;;;;20.25;14.95;;;18.10;99.90;;;;;;4592627;19;20069;-71
2023/10/22 06:44:36;;;;;;;17.83;15.13;;;18.10;99.90;;;;;;4592144;19;20003;-71
2023/10/22 06:46:11;;;;;;;18.48;14.77;;;18.10;99.90;;;;;;4592651;19;20006;-71
2023/10/22 06:47:50;;;;;;;20.02;15.25;;;18.10;99.90;;;;;;4592541;19;20470;-71
2023/10/22 06:49:25;;;;;;;20.08;15.40;;;18.20;99.90;;;;;;4592717;19;20430;-71
2023/10/22 06:50:59;;;;;;;23.40;16.20;;;18.20;99.90;;;;;;4592691;19;20002;-70
2023/10/22 06:52:35;;;;;;;26.67;17.08;;;18.30;99.90;;;;;;4591909;19;20007;-70
2023/10/22 06:54:09;;;;;;;24.40;16.70;;;18.40;99.90;;;;;;4592438;19;20059;-70
2023/10/22 06:55:44;;;;;;;21.20;15.95;;;18.50;99.90;;;;;;4591078;19;20031;-71
2023/10/22 06:57:20;;;;;;;22.52;15.70;;;18.50;99.90;;;;;;4592755;19;20433;-71
2023/10/22 06:58:54;;;;;;;19.45;14.75;;;18.60;99.90;;;;;;4592603;19;20003;-71
2023/10/22 07:00:30;;;;;;;18.40;15.77;;;18.70;99.90;;;;;;4592611;19;20107;-71
2023/10/22 07:02:06;;;;;;;22.70;16.30;;;18.70;99.90;;;;;;4592231;19;20109;-71
2023/10/22 07:03:45;;;;;;;22.25;16.60;;;18.70;99.90;;;;;;4592512;19;20098;-71
2023/10/22 07:05:19;;;;;;;25.70;17.70;;;18.70;99.90;;;;;;4591381;19;20517;-71
2023/10/22 07:06:55;;;;;;;24.17;17.52;;;18.70;99.90;;;;;;4592323;19;20015;-71
2023/10/22 07:08:29;;;;;;;22.90;16.80;;;18.80;99.90;;;;;;4592341;19;20010;-71
2023/10/22 07:10:04;;;;;;;23.67;16.00;;;18.70;99.90;;;;;;4592361;19;20002;-71
2023/10/22 07:11:41;;;;;;;22.70;17.83;;;18.70;99.90;;;;;;4592029;19;20017;-71
2023/10/22 07:13:15;;;;;;;20.40;16.25;;;18.70;99.90;;;;;;4590841;19;20369;-70
2023/10/22 07:14:50;;;;;;;19.08;15.20;;;18.70;99.90;;;;;;4591601;19;20006;-70
2023/10/22 07:16:25;;;;;;;22.35;17.42;;;18.70;99.90;;;;;;4594193;19;20003;-72
2023/10/22 07:17:59;;;;;;;25.38;18.20;;;18.70;99.90;;;;;;4594088;19;20006;-72
2023/10/22 07:19:33;;;;;;;26.58;20.00;;;18.70;99.90;;;;;;4594152;19;20070;-71
2023/10/22 07:21:09;;;;;;;27.23;20.75;;;18.70;99.90;;;;;;4593772;19;20529;-70
2023/10/22 07:22:43;;;;;;;26.38;21.95;;;18.70;99.90;;;;;;4593991;19;20024;-70
2023/10/22 07:24:18;;;;;;;29.08;22.67;;;18.70;99.90;;;;;;4592447;19;20006;-70
2023/10/22 07:25:56;;;;;;;28.13;21.23;;;18.60;99.90;;;;;;4593787;19;20014;-70
2023/10/22 07:27:30;;;;;;;22.90;20.40;;;18.70;99.90;;;;;;4592783;19;20409;-70
2023/10/22 07:29:04;;;;;;;24.60;21.02;;;18.60;99.90;;;;;;4593687;19;20306;-70
2023/10/22 07:30:45;;;;;;;24.15;21.02;;;18.60;99.90;;;;;;4592784;19;20007;-71
2023/10/22 07:32:19;;;;;;;22.58;20.13;;;18.60;99.90;;;;;;4592440;19;20006;-71
2023/10/22 07:33:54;;;;;;;20.38;18.17;;;18.50;99.90;;;;;;4593605;19;20434;-71
2023/10/22 07:35:29;;;;;;;19.70;17.52;;;18.50;99.90;;;;;;4592851;19;20021;-72
2023/10/22 07:37:03;;;;;;;18.25;15.63;;;18.50;99.90;;;;;;4593242;19;20005;-71
2023/10/22 07:38:40;;;;;;;17.00;14.55;;;18.50;99.90;;;;;;4593796;19;20022;-70
2023/10/22 07:40:17;;;;;;;18.13;15.60;;;18.50;99.90;;;;;;4593877;19;20007;-71
2023/10/22 07:41:51;;;;;;;17.73;15.85;;;18.50;99.90;;;;;;4592659;19;19998;-70
2023/10/22 07:43:26;;;;;;;16.25;14.40;;;18.40;99.90;;;;;;4593644;19;20054;-70
2023/10/22 07:45:02;;;;;;;16.95;15.15;;;18.40;99.90;;;;;;4591735;19;20082;-71
2023/10/22 07:46:36;;;;;;;17.85;15.95;;;18.40;99.90;;;;;;4593302;19;20434;-70
2023/10/22 07:48:10;;;;;;;16.58;14.25;;;18.40;99.90;;;;;;4593854;19;19998;-70
2023/10/22 07:49:51;;;;;;;17.83;15.23;;;18.40;99.90;;;;;;4593771;19;20024;-72
2023/10/22 07:51:27;;;;;;;17.75;15.35;;;18.40;99.90;;;;;;4592383;19;20007;-71
2023/10/22 07:53:01;;;;;;;17.48;15.25;;;18.40;99.90;;;;;;4592436;19;20014;-70
2023/10/22 07:54:36;;;;;;;18.52;15.90;;;18.30;99.90;;;;;;4593205;19;20032;-69
2023/10/22 07:56:10;;;;;;;17.30;14.63;;;18.30;99.90;;;;;;4593497;19;19999;-70
2023/10/22 07:57:44;;;;;;;16.65;14.60;;;18.30;99.90;;;;;;4593520;19;20015;-71
2023/10/22 07:59:19;;;;;;;17.33;15.48;;;18.30;99.90;;;;;;4593466;19;20430;-71
2023/10/22 08:00:55;;;;;;;17.63;15.50;;;18.40;99.90;;;;;;4593510;19;20369;-69
2023/10/22 08:02:28;;;;;;;18.80;16.90;;;18.40;99.90;;;;;;4592591;19;20295;-70
2023/10/22 08:04:05;;;;;;;19.77;17.77;;;18.40;99.90;;;;;;4592602;19;20014;-69
2023/10/22 08:05:40;;;;;;;19.95;17.38;;;18.30;99.90;;;;;;4592102;19;20006;-70
2023/10/22 08:07:17;;;;;;;18.95;16.58;;;18.30;99.90;;;;;;4593589;19;20349;-70
2023/10/22 08:08:58;;;;;;;17.67;15.88;;;18.30;99.90;;;;;;4593667;19;20013;-70
2023/10/22 08:10:33;;;;;;;19.08;16.58;;;18.40;99.90;;;;;;4593319;19;20002;-70
2023/10/22 08:12:08;;;;;;;19.15;17.15;;;18.30;99.90;;;;;;4593117;19;20003;-70
2023/10/22 08:13:44;;;;;;;18.30;15.70;;;18.30;99.90;;;;;;4593226;19;20029;-71
2023/10/22 08:15:18;;;;;;;21.55;16.80;;;18.40;99.90;;;;;;4590639;19;20366;-70
2023/10/22 08:16:54;;;;;;;18.48;15.40;;;18.40;99.90;;;;;;4592757;19;20022;-71
2023/10/22 08:18:29;;;;;;;17.10;15.25;;;18.40;99.90;;;;;;4593154;19;20002;-70